Aérodrome :
LOGIN :

S'inscrire | Disclaimer

   EN    FR    IT 

 










Légende :    VFR   VFR Marginal   IFR   IFR Intensif   IFR Très Intensif
Visi : 
Plafond : 
>= 8 km
>= 3000ft
5 à 8 km
1000 à 3000 ft
1500m à 5 km
500 à 1000 ft
800 à 1500m
200 à 500 ft
< 800m
< 200 ft
Symboles :   Orages  Brouillard  Fortes neiges  Fortes précipitations  Vent > 20 kt
SIGMETs :   Divers  Orages  Givrage  Turbulence  Onde Orograph.  Cendres Volcan.







- Altitude de l'aérodrome : 459 ft
- Code IATA : CER
- Voir les cartes d'approche


LFRC - Cherbourg / Maupertus

DERNIER METAR :
  • 201400Z AUTO 18009KT 140V210 9999 SCT023 OVC032 16/11 Q1020 NOSIG

METARs EXPIRÉS :
  • 201330Z AUTO 19010KT 9999 BKN035 16/10 Q1020 NOSIG
  • 201300Z AUTO 18008KT 140V200 9999 SCT029 BKN036 16/10 Q1020 NOSIG
  • 201230Z AUTO 18012KT 9999 FEW028 17/11 Q1020 NOSIG
  • 201200Z AUTO 19011KT 9999 BKN031 BKN038 17/11 Q1020 NOSIG
  • 201130Z AUTO 17011KT 9999 FEW028 BKN038 17/10 Q1020 NOSIG

TAF TAF LFRC
Valide du 20 à 12h jusqu'au 20 à 21h UTC


201100Z 2012/2021 20010KT 9999 SCT030
Pas de NOTAMs connus pour ce terrain.



MET'MAP, la Météo Aéronautique d'un coup d'oeil ! - Copyright ORBIFLY Décembre 2007 - Disclaimer

ORBIFLY MET'MAP TEAM :

Programmation & Développement : Alexandra Zaïnal
Conception & Développement : Baudouin d'Aumeries
Co-Programmation & Développement : Marc-Olivier Méhu
Soutien technique & logistique : Manuel Goepfert

Contact : metmap@orbifly.com




SOURCES & CREDITS :

   NOAA